Time;durP1;ratioP1;P1;durP2;ratioP2;P2;SDS_P1;SDS_P2;PMS_P1;PMS_P2;Temp;Humidity;BMP_temperature;BMP_pressure;BME280_temperature;BME280_humidity;BME280_pressure;Samples;Min_cycle;Max_cycle;Signal;HPM_P1;HPM_P2
2023/02/15 00:02:16;;;;;;;30.80;13.68;;;1.40;1.00;;;;;;5071534;28;20702;-56
2023/02/15 00:04:48;;;;;;;29.70;13.57;;;1.20;1.00;;;;;;5070267;28;20384;-56
2023/02/15 00:07:16;;;;;;;34.28;13.43;;;1.10;1.00;;;;;;5071154;28;20403;-56
2023/02/15 00:09:41;;;;;;;32.45;13.77;;;0.90;1.00;;;;;;5070886;28;20605;-56
2023/02/15 00:12:08;;;;;;;27.58;13.77;;;0.90;1.00;;;;;;5071465;28;20372;-56
2023/02/15 00:14:33;;;;;;;32.72;14.23;;;1.00;1.00;;;;;;5070165;28;20861;-56
2023/02/15 00:16:59;;;;;;;28.38;14.30;;;0.90;1.00;;;;;;5071109;28;20386;-56
2023/02/15 00:19:25;;;;;;;34.70;15.50;;;0.90;1.00;;;;;;5070233;28;20462;-56
2023/02/15 00:21:51;;;;;;;31.10;15.00;;;1.10;1.00;;;;;;5071040;28;20837;-56
2023/02/15 00:24:18;;;;;;;31.97;14.60;;;1.20;1.00;;;;;;5070486;28;20860;-55
2023/02/15 00:26:45;;;;;;;35.40;15.27;;;2.70;1.00;;;;;;5052468;28;20912;-56
2023/02/15 00:29:12;;;;;;;31.30;13.40;;;1.20;1.00;;;;;;5050953;28;20378;-56
2023/02/15 00:31:38;;;;;;;35.50;15.93;;;1.20;1.00;;;;;;5050069;28;20855;-56
2023/02/15 00:34:06;;;;;;;32.73;14.33;;;1.20;1.00;;;;;;5050890;28;20393;-56
2023/02/15 00:36:33;;;;;;;34.88;15.75;;;1.30;1.00;;;;;;5050276;28;20396;-56
2023/02/15 00:38:59;;;;;;;34.78;15.43;;;1.20;1.00;;;;;;5051174;28;20417;-56
2023/02/15 00:41:24;;;;;;;31.85;15.15;;;1.20;1.00;;;;;;5050106;28;20428;-56
2023/02/15 00:43:50;;;;;;;30.83;13.90;;;1.10;1.00;;;;;;5050672;28;20410;-56
2023/02/15 00:46:15;;;;;;;27.90;12.10;;;1.00;1.00;;;;;;5050382;28;20382;-56
2023/02/15 00:48:41;;;;;;;28.27;13.27;;;0.90;99.90;;;;;;5049446;28;20409;-56
2023/02/15 00:51:08;;;;;;;31.30;14.17;;;0.70;99.90;;;;;;5050846;28;20378;-56
2023/02/15 00:53:34;;;;;;;33.70;14.32;;;0.60;99.90;;;;;;5049603;28;20396;-56
2023/02/15 00:56:00;;;;;;;31.90;14.40;;;0.50;1.00;;;;;;5055477;28;20400;-56
2023/02/15 00:58:25;;;;;;;32.25;13.75;;;0.60;99.90;;;;;;5069708;28;20719;-56
2023/02/15 01:00:52;;;;;;;28.65;13.38;;;0.60;99.90;;;;;;5058569;28;20380;-56
2023/02/15 01:03:20;;;;;;;29.67;13.82;;;0.50;99.90;;;;;;5050087;28;20389;-56
2023/02/15 01:05:47;;;;;;;32.07;13.20;;;0.50;99.90;;;;;;5052792;28;20392;-56
2023/02/15 01:08:13;;;;;;;32.53;14.20;;;0.50;99.90;;;;;;5069874;28;20449;-56
2023/02/15 01:10:39;;;;;;;37.87;15.70;;;0.40;99.90;;;;;;5069679;28;20422;-56
2023/02/15 01:13:05;;;;;;;43.47;16.27;;;0.40;99.90;;;;;;5070165;28;20457;-56
2023/02/15 01:15:30;;;;;;;44.60;15.93;;;0.40;1.00;;;;;;5069177;28;20426;-56
2023/02/15 01:17:56;;;;;;;40.42;16.05;;;0.50;1.00;;;;;;5069847;28;20392;-56
2023/02/15 01:20:27;;;;;;;56.90;17.73;;;0.50;1.00;;;;;;5068924;28;20899;-56
2023/02/15 01:22:53;;;;;;;50.30;17.03;;;0.60;78.10;;;;;;5070199;28;20881;-56
2023/02/15 01:25:21;;;;;;;56.15;17.75;;;0.70;99.90;;;;;;5068444;28;20408;-55
2023/02/15 01:27:47;;;;;;;46.28;15.50;;;0.60;99.90;;;;;;5069033;28;20422;-56
2023/02/15 01:30:14;;;;;;;54.20;17.00;;;0.70;99.90;;;;;;5069505;28;20740;-56
2023/02/15 01:32:40;;;;;;;39.72;16.25;;;0.60;99.90;;;;;;5068662;28;20437;-56
2023/02/15 01:35:06;;;;;;;38.50;16.60;;;0.60;99.90;;;;;;5052409;28;20408;-56
2023/02/15 01:37:33;;;;;;;57.60;15.98;;;0.70;99.90;;;;;;5049195;28;20471;-56
2023/02/15 01:40:02;;;;;;;46.87;15.57;;;0.70;99.90;;;;;;5049486;28;20377;-56
2023/02/15 01:42:29;;;;;;;42.17;13.35;;;1.90;99.90;;;;;;5048719;28;20455;-56
2023/02/15 01:45:24;;;;;;;57.57;14.37;;;0.60;99.90;;;;;;5049654;28;20381;-56
2023/02/15 01:48:04;;;;;;;39.13;13.53;;;0.50;99.90;;;;;;5048683;28;20576;-56
2023/02/15 01:50:32;;;;;;;52.95;14.48;;;0.40;99.90;;;;;;5049109;28;20394;-56
2023/02/15 01:53:01;;;;;;;36.03;14.00;;;0.30;99.90;;;;;;5049713;28;20444;-56
2023/02/15 01:55:36;;;;;;;49.72;13.57;;;0.40;99.90;;;;;;5047682;28;20488;-56
2023/02/15 01:58:02;;;;;;;46.15;13.82;;;0.20;1.00;;;;;;5049521;28;20827;-56
2023/02/15 02:00:28;;;;;;;40.70;13.38;;;0.20;1.00;;;;;;5049280;28;20385;-56
2023/02/15 02:02:56;;;;;;;40.15;12.98;;;0.20;1.00;;;;;;5049658;28;20802;-56
2023/02/15 02:05:22;;;;;;;31.80;12.75;;;0.00;1.00;;;;;;5049499;28;20472;-56
2023/02/15 02:07:50;;;;;;;30.98;12.23;;;0.10;1.00;;;;;;5049039;28;20409;-56
2023/02/15 02:10:20;;;;;;;41.88;12.35;;;0.10;1.00;;;;;;5048958;28;20435;-56
2023/02/15 02:12:49;;;;;;;44.40;13.18;;;0.20;1.00;;;;;;5048274;28;20855;-56
2023/02/15 02:15:15;;;;;;;38.67;13.93;;;0.20;1.00;;;;;;5049197;28;20385;-56
2023/02/15 02:18:11;;;;;;;36.77;11.60;;;0.20;1.00;;;;;;5048610;28;20384;-56
2023/02/15 02:20:52;;;;;;;29.70;11.25;;;0.20;1.00;;;;;;5048829;28;20366;-56
2023/02/15 02:23:51;;;;;;;40.93;13.57;;;0.10;1.00;;;;;;5049473;28;20381;-56
2023/02/15 02:26:34;;;;;;;30.40;12.20;;;0.20;1.00;;;;;;5048528;28;20823;-56
2023/02/15 02:29:30;;;;;;;45.93;12.53;;;0.20;1.00;;;;;;5049324;28;20420;-55
2023/02/15 02:32:19;;;;;;;30.35;12.32;;;0.30;1.00;;;;;;5049164;28;20389;-56
2023/02/15 02:35:22;;;;;;;29.65;12.48;;;0.20;1.00;;;;;;5048853;28;20408;-56
2023/02/15 02:37:56;;;;;;;33.22;11.63;;;0.30;1.00;;;;;;5051184;28;20742;-56
2023/02/15 02:40:33;;;;;;;42.63;11.88;;;0.30;1.00;;;;;;5052750;28;20863;-56
2023/02/15 02:43:10;;;;;;;46.08;10.93;;;0.20;1.00;;;;;;5053284;28;20385;-56
2023/02/15 02:45:40;;;;;;;40.35;12.57;;;0.30;1.00;;;;;;5052473;28;20902;-56
2023/02/15 02:48:13;;;;;;;30.40;11.60;;;0.40;1.00;;;;;;5052807;28;20412;-56
2023/02/15 02:50:40;;;;;;;50.97;11.35;;;0.50;1.00;;;;;;5052409;28;20404;-56
2023/02/15 02:53:06;;;;;;;28.15;9.88;;;0.50;1.00;;;;;;5052915;28;20389;-56
2023/02/15 02:55:41;;;;;;;39.77;9.50;;;0.60;1.00;;;;;;5052057;28;20393;-56
2023/02/15 02:58:28;;;;;;;28.55;8.38;;;0.60;1.00;;;;;;5052971;28;20373;-56
2023/02/15 03:00:57;;;;;;;34.20;9.25;;;0.50;1.00;;;;;;5052447;28;20378;-56
2023/02/15 03:03:32;;;;;;;24.77;8.80;;;0.30;1.00;;;;;;5052511;28;20401;-56
2023/02/15 03:06:03;;;;;;;36.67;8.95;;;0.50;1.00;;;;;;5052303;28;20468;-56
2023/02/15 03:08:43;;;;;;;31.63;9.25;;;0.40;1.00;;;;;;5051928;28;20886;-56
2023/02/15 03:11:08;;;;;;;32.97;9.20;;;0.40;1.00;;;;;;5052905;28;20376;-56
2023/02/15 03:13:35;;;;;;;32.72;9.25;;;0.40;1.00;;;;;;5051621;28;20734;-56
2023/02/15 03:18:58;;;;;;;21.07;9.43;;;0.40;1.00;;;;;;5051589;28;20388;-56
2023/02/15 03:21:40;;;;;;;26.70;10.18;;;0.50;1.00;;;;;;5052861;28;20707;-56
2023/02/15 03:24:13;;;;;;;27.02;9.88;;;0.40;1.00;;;;;;5052215;28;20386;-56
2023/02/15 03:26:40;;;;;;;28.07;9.60;;;0.40;1.00;;;;;;5050469;28;20404;-56
2023/02/15 03:29:07;;;;;;;24.63;8.85;;;0.40;1.00;;;;;;5051730;28;20494;-56
2023/02/15 03:31:38;;;;;;;18.52;7.85;;;0.40;1.00;;;;;;5051435;28;20431;-56
2023/02/15 03:34:09;;;;;;;22.83;7.80;;;0.30;1.00;;;;;;5051972;28;20412;-55
2023/02/15 03:36:39;;;;;;;22.67;8.43;;;0.20;1.00;;;;;;5051469;28;20401;-56
2023/02/15 03:39:24;;;;;;;19.30;7.28;;;0.10;1.00;;;;;;5052369;28;20495;-56
2023/02/15 03:41:55;;;;;;;17.33;6.80;;;0.10;1.00;;;;;;5051499;28;20378;-56
2023/02/15 03:44:31;;;;;;;15.57;6.95;;;0.10;1.00;;;;;;5051653;28;20386;-56
2023/02/15 03:47:08;;;;;;;16.10;7.15;;;0.10;1.00;;;;;;5050348;28;20393;-56
2023/02/15 03:49:58;;;;;;;12.85;5.57;;;0.10;1.00;;;;;;5049994;28;20381;-56
2023/02/15 03:52:28;;;;;;;16.48;7.95;;;0.20;1.00;;;;;;5051776;28;20385;-56
2023/02/15 03:54:54;;;;;;;31.23;7.90;;;0.20;1.00;;;;;;5051620;28;20397;-56
2023/02/15 04:03:31;;;;;;;15.50;6.70;;;0.20;1.00;;;;;;5068361;28;20406;-56
2023/02/15 04:05:57;;;;;;;20.73;6.73;;;0.20;1.00;;;;;;5071002;28;20793;-57
2023/02/15 04:10:51;;;;;;;12.67;5.17;;;0.30;1.00;;;;;;5071023;28;20506;-56
2023/02/15 04:11:08;;;;;;;16.92;6.07;;;0.10;1.00;;;;;;5070538;28;20388;-55
2023/02/15 04:13:35;;;;;;;15.33;6.00;;;0.10;1.00;;;;;;5062864;28;20439;-56
2023/02/15 04:16:03;;;;;;;10.57;4.38;;;0.00;1.00;;;;;;5051333;28;20394;-56
2023/02/15 04:26:58;;;;;;;19.95;7.38;;;0.20;1.00;;;;;;5050794;28;20423;-57
2023/02/15 04:29:25;;;;;;;19.63;6.13;;;0.20;1.00;;;;;;5051028;28;20377;-56
2023/02/15 04:31:52;;;;;;;14.77;5.65;;;0.10;1.00;;;;;;5069634;28;20430;-56
2023/02/15 04:34:18;;;;;;;13.67;4.87;;;0.10;1.00;;;;;;5070880;28;20443;-56
2023/02/15 04:36:43;;;;;;;10.60;5.17;;;0.10;1.00;;;;;;5069954;28;20383;-56
2023/02/15 04:39:12;;;;;;;11.80;5.00;;;0.30;1.00;;;;;;5070699;28;20386;-56
2023/02/15 04:41:37;;;;;;;11.50;4.65;;;0.10;1.00;;;;;;5067383;28;20396;-56
2023/02/15 04:44:03;;;;;;;13.32;4.95;;;0.20;1.00;;;;;;5052120;28;20481;-57
2023/02/15 04:46:29;;;;;;;10.95;5.60;;;0.20;1.00;;;;;;5049852;28;20472;-56
2023/02/15 04:48:56;;;;;;;7.80;3.63;;;0.10;1.00;;;;;;5050443;28;20795;-56
2023/02/15 04:51:22;;;;;;;12.60;6.30;;;0.00;1.00;;;;;;5063872;28;20883;-56
2023/02/15 04:53:47;;;;;;;16.47;5.90;;;0.00;1.00;;;;;;5070076;28;20412;-56
2023/02/15 04:56:13;;;;;;;15.97;5.50;;;-0.10;1.00;;;;;;5080146;28;20487;-56
2023/02/15 04:58:40;;;;;;;11.60;4.55;;;-0.20;1.00;;;;;;5089370;28;20390;-56
2023/02/15 05:01:08;;;;;;;14.90;5.35;;;-0.10;1.00;;;;;;5090141;28;20473;-56
2023/02/15 05:03:34;;;;;;;14.63;5.95;;;-0.10;1.00;;;;;;5089500;28;20378;-56
2023/02/15 05:05:59;;;;;;;11.50;3.60;;;0.00;1.00;;;;;;5090590;28;20719;-56
2023/02/15 05:08:25;;;;;;;12.67;4.87;;;0.60;1.00;;;;;;5089853;28;20771;-56
2023/02/15 05:10:50;;;;;;;14.73;6.60;;;0.00;1.00;;;;;;5089513;28;20460;-57
2023/02/15 05:13:16;;;;;;;15.93;5.37;;;0.00;1.00;;;;;;5089642;28;20378;-56
2023/02/15 05:15:47;;;;;;;15.75;5.15;;;0.00;1.00;;;;;;5087547;28;20491;-56
2023/02/15 05:18:13;;;;;;;10.30;4.30;;;0.00;1.00;;;;;;5079215;28;20384;-56
2023/02/15 05:20:39;;;;;;;11.35;5.88;;;-0.10;1.00;;;;;;5069161;28;20394;-56
2023/02/15 05:23:04;;;;;;;11.32;5.40;;;-0.10;1.00;;;;;;5069654;28;20380;-56
2023/02/15 05:28:22;;;;;;;11.73;4.87;;;0.00;1.00;;;;;;5069772;28;20430;-55
2023/02/15 05:31:05;;;;;;;7.85;4.10;;;0.00;1.00;;;;;;5068537;28;20457;-56
2023/02/15 05:33:31;;;;;;;14.80;4.90;;;0.00;1.00;;;;;;5068161;28;20403;-57
2023/02/15 05:35:57;;;;;;;13.43;5.82;;;0.10;1.00;;;;;;5083457;28;20443;-57
2023/02/15 05:38:23;;;;;;;23.60;5.17;;;0.20;1.00;;;;;;5089562;28;20394;-56
2023/02/15 05:40:51;;;;;;;11.60;4.80;;;0.10;1.00;;;;;;5081192;28;20395;-56
2023/02/15 05:43:18;;;;;;;12.10;4.90;;;0.10;1.00;;;;;;5069887;28;20451;-56
2023/02/15 05:45:51;;;;;;;14.02;4.55;;;0.10;1.00;;;;;;5067473;28;20403;-56
2023/02/15 05:48:18;;;;;;;9.00;4.07;;;1.70;1.00;;;;;;5071775;28;20466;-56
2023/02/15 05:50:44;;;;;;;13.70;4.47;;;0.10;1.00;;;;;;5085631;28;20511;-56
2023/02/15 05:53:10;;;;;;;13.23;4.70;;;0.10;1.00;;;;;;5089510;28;20366;-56
2023/02/15 05:55:39;;;;;;;8.60;4.18;;;0.00;1.00;;;;;;5081363;28;20391;-57
2023/02/15 05:58:06;;;;;;;8.88;4.50;;;0.00;1.00;;;;;;5061705;28;20394;-56
2023/02/15 06:00:31;;;;;;;13.68;5.70;;;-0.10;1.00;;;;;;5074142;28;20424;-56
2023/02/15 06:02:57;;;;;;;11.05;5.07;;;0.00;1.00;;;;;;5085939;28;20919;-56
2023/02/15 06:05:23;;;;;;;13.83;5.20;;;0.00;1.00;;;;;;5089304;28;20400;-56
2023/02/15 06:07:48;;;;;;;7.47;4.43;;;0.10;1.00;;;;;;5088151;28;20568;-56
2023/02/15 06:10:18;;;;;;;10.67;3.53;;;0.00;1.00;;;;;;5088928;28;20866;-56
2023/02/15 06:12:44;;;;;;;9.90;3.30;;;-0.10;99.90;;;;;;5091754;28;20381;-56
2023/02/15 06:15:10;;;;;;;8.55;4.28;;;-0.10;1.00;;;;;;5093477;28;20370;-56
2023/02/15 06:17:35;;;;;;;12.20;6.00;;;-0.10;1.00;;;;;;5092759;28;20395;-56
2023/02/15 06:20:12;;;;;;;9.93;4.65;;;0.00;1.00;;;;;;5071365;28;20387;-56
2023/02/15 06:22:38;;;;;;;11.17;3.87;;;0.00;1.00;;;;;;5066443;28;20472;-56
2023/02/15 06:25:03;;;;;;;14.70;5.30;;;0.00;1.00;;;;;;5091018;28;20825;-56
2023/02/15 06:27:29;;;;;;;14.30;5.05;;;0.00;1.00;;;;;;5092518;28;20417;-55
2023/02/15 06:29:55;;;;;;;8.00;3.87;;;0.10;1.00;;;;;;5092575;28;20444;-55
2023/02/15 06:32:20;;;;;;;12.60;5.97;;;0.10;1.00;;;;;;5058515;28;20851;-55
2023/02/15 06:34:46;;;;;;;10.57;3.30;;;0.00;1.00;;;;;;5051836;28;20421;-56
2023/02/15 06:37:12;;;;;;;15.97;5.27;;;0.00;1.00;;;;;;5053130;28;20370;-55
2023/02/15 06:39:38;;;;;;;8.40;4.10;;;-0.10;1.00;;;;;;5051803;28;20381;-56
2023/02/15 06:42:04;;;;;;;11.80;5.13;;;0.00;1.00;;;;;;5052437;28;20400;-55
2023/02/15 06:44:30;;;;;;;10.90;4.63;;;0.10;1.00;;;;;;5066576;28;20388;-55
2023/02/15 06:46:56;;;;;;;10.50;4.60;;;0.00;99.90;;;;;;5062372;28;20842;-55
2023/02/15 06:49:22;;;;;;;11.35;5.80;;;-0.10;1.00;;;;;;5085201;28;20402;-55
2023/02/15 06:51:47;;;;;;;9.30;5.10;;;-0.10;1.00;;;;;;5092029;28;20607;-56
2023/02/15 06:54:13;;;;;;;11.43;4.78;;;0.00;1.00;;;;;;5089683;28;20388;-55
2023/02/15 06:56:38;;;;;;;11.65;4.15;;;0.20;1.00;;;;;;5071656;28;20437;-55
2023/02/15 06:59:04;;;;;;;7.23;3.53;;;0.20;1.00;;;;;;5072601;28;20387;-55
2023/02/15 07:01:30;;;;;;;12.10;5.35;;;0.20;99.90;;;;;;5069501;28;21010;-55
2023/02/15 07:03:55;;;;;;;15.17;6.13;;;0.20;99.90;;;;;;5057989;28;20409;-56
2023/02/15 07:06:21;;;;;;;12.57;5.20;;;0.20;99.90;;;;;;5068154;28;20529;-55
2023/02/15 07:08:46;;;;;;;16.85;3.67;;;0.30;99.90;;;;;;5071915;28;20396;-55
2023/02/15 07:13:58;;;;;;;8.10;4.17;;;0.00;99.90;;;;;;5071643;28;20386;-56
2023/02/15 07:16:23;;;;;;;15.93;3.97;;;-0.10;99.90;;;;;;5071660;28;20395;-56
2023/02/15 07:18:49;;;;;;;10.83;5.83;;;-0.10;99.90;;;;;;5071763;28;20931;-56
2023/02/15 07:21:14;;;;;;;16.70;6.35;;;-0.10;99.90;;;;;;5071629;28;20372;-56
2023/02/15 07:23:40;;;;;;;15.30;6.17;;;0.10;1.00;;;;;;5070678;28;20391;-56
2023/02/15 07:26:07;;;;;;;12.67;4.40;;;0.20;1.00;;;;;;5072207;28;20464;-56
2023/02/15 07:28:36;;;;;;;8.77;4.35;;;0.10;99.90;;;;;;5071405;28;20407;-57
2023/02/15 07:31:03;;;;;;;8.57;3.17;;;1.40;99.90;;;;;;5071904;28;20725;-56
2023/02/15 07:33:31;;;;;;;12.75;4.43;;;0.10;99.90;;;;;;5071636;28;20396;-56
2023/02/15 07:36:00;;;;;;;20.75;5.88;;;0.10;99.90;;;;;;5071518;28;20372;-56
2023/02/15 07:38:29;;;;;;;9.20;4.82;;;0.10;1.00;;;;;;5071861;28;20443;-56
2023/02/15 07:41:02;;;;;;;9.03;4.37;;;0.40;1.00;;;;;;5070865;28;20402;-55
2023/02/15 07:43:29;;;;;;;24.08;6.43;;;0.50;1.00;;;;;;5071658;28;20437;-55
2023/02/15 07:45:58;;;;;;;12.00;5.97;;;0.60;99.90;;;;;;5071251;28;20389;-56
2023/02/15 07:48:24;;;;;;;11.60;5.15;;;0.50;99.90;;;;;;5071523;28;20415;-56
2023/02/15 07:50:50;;;;;;;14.83;5.47;;;0.60;99.90;;;;;;5070599;28;20391;-56
2023/02/15 07:53:15;;;;;;;9.88;5.05;;;0.50;99.90;;;;;;5071715;28;20864;-56
2023/02/15 07:55:41;;;;;;;9.33;4.50;;;0.50;99.90;;;;;;5070737;28;20398;-56
2023/02/15 07:58:06;;;;;;;13.05;6.30;;;0.50;99.90;;;;;;5071412;28;20392;-56
2023/02/15 08:00:55;;;;;;;10.70;4.80;;;0.60;99.90;;;;;;5070925;28;20788;-56
2023/02/15 08:03:18;;;;;;;14.27;5.03;;;0.60;99.90;;;;;;5070917;28;20880;-56
2023/02/15 08:05:45;;;;;;;13.50;5.43;;;0.50;99.90;;;;;;5070593;28;20624;-56
2023/02/15 08:08:29;;;;;;;11.07;4.28;;;0.50;99.90;;;;;;5071373;28;20792;-56
2023/02/15 08:13:55;;;;;;;14.35;6.15;;;0.50;99.90;;;;;;5070345;28;20410;-56
2023/02/15 08:16:39;;;;;;;20.38;5.40;;;0.60;99.90;;;;;;5071651;28;20392;-56
2023/02/15 08:19:16;;;;;;;18.15;6.18;;;0.60;99.90;;;;;;5071244;28;20457;-56
2023/02/15 08:22:05;;;;;;;17.43;6.00;;;0.60;1.00;;;;;;5070383;28;20506;-57
2023/02/15 08:24:33;;;;;;;16.55;6.45;;;0.60;1.00;;;;;;5070864;28;20408;-56
2023/02/15 08:26:59;;;;;;;9.85;6.07;;;0.60;99.90;;;;;;5070640;28;20416;-56
2023/02/15 08:29:28;;;;;;;25.23;8.13;;;0.60;99.90;;;;;;5070892;28;20411;-56
2023/02/15 08:31:58;;;;;;;14.98;6.15;;;1.30;1.00;;;;;;5069989;28;20376;-56
2023/02/15 08:34:24;;;;;;;16.52;6.63;;;0.70;99.90;;;;;;5070618;28;20897;-57
2023/02/15 08:36:50;;;;;;;17.50;7.20;;;0.80;1.00;;;;;;5068056;28;20394;-57
2023/02/15 08:39:16;;;;;;;13.15;5.57;;;0.90;99.90;;;;;;5070937;28;20455;-56
2023/02/15 08:41:44;;;;;;;12.63;5.95;;;0.90;99.90;;;;;;5069702;28;20388;-57
2023/02/15 08:44:11;;;;;;;9.23;5.50;;;0.80;99.90;;;;;;5070118;28;20372;-57
2023/02/15 08:46:41;;;;;;;13.23;5.60;;;0.80;99.90;;;;;;5069630;28;20380;-56
2023/02/15 08:49:07;;;;;;;10.45;3.90;;;0.90;99.90;;;;;;5070237;28;20399;-56
2023/02/15 08:51:35;;;;;;;12.93;6.03;;;0.70;99.90;;;;;;5069530;28;20722;-56
2023/02/15 08:54:04;;;;;;;24.55;9.77;;;0.90;1.00;;;;;;5070783;28;20386;-56
2023/02/15 08:56:34;;;;;;;25.08;10.45;;;1.10;1.00;;;;;;5070519;28;20434;-56
2023/02/15 08:59:00;;;;;;;33.28;8.32;;;1.40;1.00;;;;;;5070272;28;20380;-56
2023/02/15 09:01:29;;;;;;;24.33;8.60;;;1.70;1.00;;;;;;5070378;28;20387;-56
2023/02/15 09:03:57;;;;;;;21.27;10.82;;;1.70;99.90;;;;;;5069445;28;20528;-56
2023/02/15 09:06:23;;;;;;;22.80;9.50;;;2.00;99.90;;;;;;5069831;28;20425;-57
2023/02/15 09:08:50;;;;;;;19.48;9.02;;;2.10;4.60;;;;;;5069019;28;20486;-56
2023/02/15 09:11:22;;;;;;;18.90;8.23;;;2.20;1.00;;;;;;5069996;28;20395;-56
2023/02/15 09:13:49;;;;;;;22.38;9.30;;;2.10;1.00;;;;;;5069125;28;20521;-56
2023/02/15 09:16:16;;;;;;;22.05;9.85;;;2.10;99.90;;;;;;5070071;28;20372;-56
2023/02/15 09:18:42;;;;;;;25.92;10.05;;;2.20;99.90;;;;;;5069470;28;20383;-56
2023/02/15 09:21:16;;;;;;;20.83;10.25;;;2.20;99.90;;;;;;5069934;28;20384;-56
2023/02/15 09:23:44;;;;;;;26.83;10.55;;;2.40;21.70;;;;;;5068779;28;20847;-56
2023/02/15 09:26:12;;;;;;;29.48;10.43;;;2.40;99.90;;;;;;5069395;28;20400;-56
2023/02/15 09:28:38;;;;;;;28.38;10.88;;;2.30;1.00;;;;;;5068997;28;20399;-56
2023/02/15 09:31:10;;;;;;;23.77;10.52;;;2.50;99.90;;;;;;5069806;28;20869;-56
2023/02/15 09:33:37;;;;;;;27.05;12.77;;;2.80;99.90;;;;;;5068267;28;20937;-56
2023/02/15 09:36:04;;;;;;;29.77;12.70;;;3.70;99.90;;;;;;5069345;28;20366;-57
2023/02/15 09:38:30;;;;;;;30.83;13.90;;;3.30;1.00;;;;;;5069199;28;20391;-56
2023/02/15 09:41:42;;;;;;;36.70;14.10;;;4.90;53.70;;;;;;5068819;28;20395;-57
2023/02/15 09:44:43;;;;;;;30.10;14.18;;;3.60;25.10;;;;;;5069524;28;20383;-56
2023/02/15 09:47:30;;;;;;;32.20;15.40;;;4.00;99.90;;;;;;5068706;28;20372;-56
2023/02/15 09:50:06;;;;;;;26.25;13.80;;;4.40;1.00;;;;;;5068692;28;20387;-56
2023/02/15 09:52:51;;;;;;;29.23;14.77;;;4.70;1.00;;;;;;5068932;28;20865;-56
2023/02/15 09:55:38;;;;;;;33.40;15.45;;;5.20;1.00;;;;;;5069688;28;20419;-56
2023/02/15 09:58:21;;;;;;;26.23;13.80;;;5.50;99.90;;;;;;5069595;28;20857;-56
2023/02/15 10:01:15;;;;;;;30.13;14.57;;;5.40;99.90;;;;;;5069208;28;20433;-57
2023/02/15 10:04:04;;;;;;;29.00;13.20;;;5.40;71.50;;;;;;5068877;28;20861;-57
2023/02/15 10:06:42;;;;;;;29.13;12.93;;;5.50;24.60;;;;;;5069609;28;20395;-57
2023/02/15 10:09:52;;;;;;;27.52;11.93;;;6.10;58.00;;;;;;5069150;28;20404;-57
2023/02/15 10:12:39;;;;;;;25.15;12.98;;;6.50;1.00;;;;;;5066181;28;20479;-57
2023/02/15 10:15:09;;;;;;;27.37;12.67;;;6.70;1.00;;;;;;5067858;28;20400;-57
2023/02/15 10:18:06;;;;;;;24.40;12.20;;;6.60;1.00;;;;;;5068893;28;20388;-57
2023/02/15 10:20:52;;;;;;;27.40;12.50;;;6.20;1.00;;;;;;5069514;28;20391;-57
2023/02/15 10:23:33;;;;;;;28.98;13.50;;;5.90;1.00;;;;;;5069392;28;20399;-57
2023/02/15 10:26:19;;;;;;;26.40;12.75;;;5.70;1.00;;;;;;5068145;28;20416;-56
2023/02/15 10:28:56;;;;;;;27.95;13.40;;;7.10;1.00;;;;;;5068526;28;20404;-57
2023/02/15 10:31:50;;;;;;;31.40;13.60;;;6.10;1.00;;;;;;5069035;28;20422;-57
2023/02/15 10:34:39;;;;;;;25.92;12.38;;;6.30;1.00;;;;;;5069058;28;20368;-57
2023/02/15 10:37:27;;;;;;;30.02;13.73;;;6.70;1.00;;;;;;5069651;28;20865;-57
2023/02/15 10:40:08;;;;;;;30.20;14.18;;;8.00;1.00;;;;;;5068136;28;20438;-57
2023/02/15 10:42:39;;;;;;;24.23;13.53;;;9.70;1.00;;;;;;5069142;28;20380;-57
2023/02/15 10:45:32;;;;;;;30.60;14.82;;;10.00;1.00;;;;;;5069120;28;20416;-57
2023/02/15 10:48:06;;;;;;;32.00;14.40;;;10.40;1.00;;;;;;5068171;28;20494;-58
2023/02/15 10:50:49;;;;;;;25.58;13.82;;;10.60;1.00;;;;;;5068718;28;20495;-58
2023/02/15 10:53:23;;;;;;;30.70;16.40;;;10.50;99.90;;;;;;5068957;28;20380;-57
2023/02/15 10:55:49;;;;;;;28.55;15.07;;;10.60;99.90;;;;;;5068658;28;20427;-58
2023/02/15 10:58:40;;;;;;;28.30;15.80;;;10.80;99.90;;;;;;5070956;28;20439;-58
2023/02/15 11:01:19;;;;;;;32.55;16.02;;;11.10;99.90;;;;;;5072649;28;20417;-57
2023/02/15 11:04:00;;;;;;;33.23;16.07;;;11.00;99.90;;;;;;5072006;28;20384;-58
2023/02/15 11:06:27;;;;;;;32.00;15.05;;;11.60;99.90;;;;;;5072867;28;20424;-58
2023/02/15 11:09:00;;;;;;;29.95;16.38;;;11.90;99.90;;;;;;5071575;28;20400;-59
2023/02/15 11:11:35;;;;;;;31.60;16.70;;;12.40;99.90;;;;;;5072007;28;20424;-58
2023/02/15 11:14:09;;;;;;;30.88;16.67;;;12.80;99.90;;;;;;5071834;28;20744;-58
2023/02/15 11:16:40;;;;;;;28.83;16.20;;;12.90;99.90;;;;;;5071998;28;20414;-58
2023/02/15 11:19:17;;;;;;;31.20;17.10;;;12.00;99.90;;;;;;5072135;28;20859;-58
2023/02/15 11:21:50;;;;;;;26.70;16.20;;;11.70;99.90;;;;;;5071238;28;20383;-58
2023/02/15 11:24:20;;;;;;;29.50;16.75;;;11.20;99.90;;;;;;5071688;28;20553;-57
2023/02/15 11:27:05;;;;;;;32.13;17.60;;;11.30;99.90;;;;;;5071670;28;20468;-57
2023/02/15 11:29:45;;;;;;;30.88;16.92;;;10.90;99.90;;;;;;5072136;28;20929;-57
2023/02/15 11:32:17;;;;;;;33.03;17.73;;;11.30;99.90;;;;;;5071968;28;20445;-58
2023/02/15 11:35:00;;;;;;;29.10;15.70;;;11.00;99.90;;;;;;5071124;28;20380;-57
2023/02/15 11:37:39;;;;;;;30.55;16.40;;;11.10;99.90;;;;;;5071823;28;20477;-57
2023/02/15 11:40:35;;;;;;;28.48;16.05;;;10.70;99.90;;;;;;5071726;28;20733;-58
2023/02/15 11:43:10;;;;;;;30.13;16.42;;;10.80;99.90;;;;;;5070732;28;20434;-58
2023/02/15 11:45:45;;;;;;;31.23;17.40;;;10.60;99.90;;;;;;5071184;28;20375;-57
2023/02/15 11:48:14;;;;;;;29.15;15.73;;;10.10;99.90;;;;;;5071604;28;20880;-57
2023/02/15 11:50:40;;;;;;;30.13;14.93;;;9.20;99.90;;;;;;5069568;28;20386;-57
2023/02/15 11:53:15;;;;;;;31.02;15.93;;;9.10;99.90;;;;;;5071486;28;20438;-57
2023/02/15 11:55:44;;;;;;;30.90;15.98;;;8.60;99.90;;;;;;5070247;28;20453;-57
2023/02/15 11:58:25;;;;;;;30.42;14.48;;;8.60;99.90;;;;;;5071411;28;20445;-57
2023/02/15 12:01:14;;;;;;;29.10;15.02;;;8.10;99.90;;;;;;5070528;28;20391;-57
2023/02/15 12:03:48;;;;;;;30.27;14.20;;;8.60;99.90;;;;;;5070832;28;20380;-57
2023/02/15 12:06:23;;;;;;;30.15;15.30;;;7.90;99.90;;;;;;5071287;28;20932;-57
2023/02/15 12:09:05;;;;;;;30.50;15.23;;;8.10;99.90;;;;;;5070650;28;20435;-57
2023/02/15 12:11:37;;;;;;;30.00;14.15;;;9.00;99.90;;;;;;5071441;28;20391;-57
2023/02/15 12:14:05;;;;;;;30.85;15.70;;;8.20;99.90;;;;;;5071127;28;20473;-57
2023/02/15 12:16:48;;;;;;;30.50;14.30;;;7.60;99.90;;;;;;5071316;28;20387;-57
2023/02/15 12:19:37;;;;;;;31.45;14.30;;;7.50;99.90;;;;;;5070775;28;20387;-58
2023/02/15 12:22:05;;;;;;;28.83;14.50;;;7.80;99.90;;;;;;5071086;28;20384;-57
2023/02/15 12:24:36;;;;;;;30.27;15.13;;;7.70;99.90;;;;;;5070320;28;20423;-59
2023/02/15 12:27:01;;;;;;;32.63;14.55;;;7.90;1.00;;;;;;5070924;28;20458;-57
2023/02/15 12:29:31;;;;;;;26.80;14.80;;;7.70;99.90;;;;;;5070726;28;20498;-57
2023/02/15 12:31:57;;;;;;;31.67;15.07;;;7.50;99.90;;;;;;5069932;28;21020;-57
2023/02/15 12:34:41;;;;;;;30.67;15.70;;;7.90;99.90;;;;;;5070535;28;20463;-57
2023/02/15 12:37:28;;;;;;;30.08;14.95;;;7.80;99.90;;;;;;5069479;28;20400;-57
2023/02/15 12:39:59;;;;;;;33.25;15.02;;;7.70;99.90;;;;;;5070024;28;20403;-57
2023/02/15 12:42:28;;;;;;;28.80;14.77;;;7.70;99.90;;;;;;5070569;28;20873;-57
2023/02/15 12:45:02;;;;;;;27.93;13.77;;;7.90;99.90;;;;;;5069928;28;20876;-57
2023/02/15 12:47:30;;;;;;;28.85;14.35;;;8.00;99.90;;;;;;5070697;28;20380;-57
2023/02/15 12:50:16;;;;;;;34.92;16.08;;;8.10;99.90;;;;;;5070034;28;20396;-57
2023/02/15 12:52:43;;;;;;;30.60;14.60;;;8.10;99.90;;;;;;5069734;28;20718;-57
2023/02/15 12:55:25;;;;;;;31.08;15.77;;;9.00;99.90;;;;;;5070642;28;20411;-57
2023/02/15 12:58:17;;;;;;;33.85;16.15;;;8.30;99.90;;;;;;5069724;28;20483;-56
2023/02/15 13:00:43;;;;;;;29.08;14.80;;;8.60;99.90;;;;;;5069694;28;20910;-57
2023/02/15 13:03:18;;;;;;;27.93;15.67;;;8.70;99.90;;;;;;5070198;28;20391;-57
2023/02/15 13:05:46;;;;;;;30.85;15.82;;;8.90;99.90;;;;;;5069002;28;20857;-57
2023/02/15 13:08:17;;;;;;;29.15;16.23;;;8.90;99.90;;;;;;5069902;28;20447;-56
2023/02/15 13:10:57;;;;;;;33.20;15.50;;;9.10;99.90;;;;;;5069432;28;20857;-56
2023/02/15 13:13:29;;;;;;;28.92;15.15;;;9.20;99.90;;;;;;5070134;28;20398;-56
2023/02/15 13:16:10;;;;;;;30.10;14.52;;;9.20;99.90;;;;;;5068061;28;20395;-57
2023/02/15 13:18:47;;;;;;;30.20;14.27;;;9.90;99.90;;;;;;5069406;28;20379;-57
2023/02/15 13:21:21;;;;;;;33.10;15.20;;;9.10;99.90;;;;;;5069065;28;20405;-57
2023/02/15 13:24:15;;;;;;;30.50;15.50;;;9.80;99.90;;;;;;5069372;28;20398;-58
2023/02/15 13:26:44;;;;;;;28.40;14.80;;;9.50;99.90;;;;;;5069003;28;20612;-57
2023/02/15 13:29:38;;;;;;;32.08;15.57;;;9.40;99.90;;;;;;5069722;28;20966;-57
2023/02/15 13:32:21;;;;;;;32.42;15.80;;;9.50;99.90;;;;;;5068251;28;20404;-57
2023/02/15 13:34:46;;;;;;;31.08;14.48;;;9.70;99.90;;;;;;5068818;28;20379;-57
2023/02/15 13:37:16;;;;;;;31.20;15.03;;;9.80;99.90;;;;;;5069934;28;20383;-57